sensor_id;sensor_type;location;lat;lon;timestamp;temperature;humidity
64198;SHT31;50512;53.666;9.700;2024-01-10T00:00:02;-3.89;99.99
64198;SHT31;50512;53.666;9.700;2024-01-10T00:02:29;-3.95;99.99
64198;SHT31;50512;53.666;9.700;2024-01-10T00:04:56;-4.06;99.99
64198;SHT31;50512;53.666;9.700;2024-01-10T00:07:22;-4.06;99.99
64198;SHT31;50512;53.666;9.700;2024-01-10T00:09:50;-4.16;99.99
64198;SHT31;50512;53.666;9.700;2024-01-10T00:12:16;-4.13;99.99
64198;SHT31;50512;53.666;9.700;2024-01-10T00:14:43;-4.03;99.99
64198;SHT31;50512;53.666;9.700;2024-01-10T00:17:09;-4.21;99.99
64198;SHT31;50512;53.666;9.700;2024-01-10T00:19:36;-4.34;99.99
64198;SHT31;50512;53.666;9.700;2024-01-10T00:22:02;-4.18;99.99
64198;SHT31;50512;53.666;9.700;2024-01-10T00:24:29;-4.09;99.99
64198;SHT31;50512;53.666;9.700;2024-01-10T00:26:57;-4.14;99.99
64198;SHT31;50512;53.666;9.700;2024-01-10T00:29:23;-4.11;99.99
64198;SHT31;50512;53.666;9.700;2024-01-10T00:31:49;-4.18;99.99
64198;SHT31;50512;53.666;9.700;2024-01-10T00:34:18;-4.36;99.99
64198;SHT31;50512;53.666;9.700;2024-01-10T00:36:44;-4.36;99.99
64198;SHT31;50512;53.666;9.700;2024-01-10T00:39:11;-4.38;99.99
64198;SHT31;50512;53.666;9.700;2024-01-10T00:41:37;-4.34;99.99
64198;SHT31;50512;53.666;9.700;2024-01-10T00:44:05;-4.48;99.99
64198;SHT31;50512;53.666;9.700;2024-01-10T00:46:31;-4.58;99.99
64198;SHT31;50512;53.666;9.700;2024-01-10T00:48:58;-4.61;99.99
64198;SHT31;50512;53.666;9.700;2024-01-10T00:51:25;-4.66;99.99
64198;SHT31;50512;53.666;9.700;2024-01-10T00:53:52;-4.57;99.99
64198;SHT31;50512;53.666;9.700;2024-01-10T00:56:18;-4.62;99.99
64198;SHT31;50512;53.666;9.700;2024-01-10T00:58:44;-4.54;99.99
64198;SHT31;50512;53.666;9.700;2024-01-10T01:01:12;-4.68;99.99
64198;SHT31;50512;53.666;9.700;2024-01-10T01:03:39;-4.58;99.99
64198;SHT31;50512;53.666;9.700;2024-01-10T01:06:05;-4.65;99.99
64198;SHT31;50512;53.666;9.700;2024-01-10T01:08:32;-4.60;99.99
64198;SHT31;50512;53.666;9.700;2024-01-10T01:10:58;-4.62;99.99
64198;SHT31;50512;53.666;9.700;2024-01-10T01:13:24;-4.53;99.99
64198;SHT31;50512;53.666;9.700;2024-01-10T01:15:51;-4.61;99.99
64198;SHT31;50512;53.666;9.700;2024-01-10T01:18:19;-4.44;99.99
64198;SHT31;50512;53.666;9.700;2024-01-10T01:20:45;-4.54;99.99
64198;SHT31;50512;53.666;9.700;2024-01-10T01:23:14;-4.60;99.99
64198;SHT31;50512;53.666;9.700;2024-01-10T01:25:40;-4.53;99.99
64198;SHT31;50512;53.666;9.700;2024-01-10T01:28:07;-4.55;99.99
64198;SHT31;50512;53.666;9.700;2024-01-10T01:30:34;-4.48;99.99
64198;SHT31;50512;53.666;9.700;2024-01-10T01:33:01;-4.31;99.99
64198;SHT31;50512;53.666;9.700;2024-01-10T01:35:31;-4.23;99.99
64198;SHT31;50512;53.666;9.700;2024-01-10T01:37:57;-4.28;99.99
64198;SHT31;50512;53.666;9.700;2024-01-10T01:40:24;-4.21;99.99
64198;SHT31;50512;53.666;9.700;2024-01-10T01:42:50;-4.09;99.99
64198;SHT31;50512;53.666;9.700;2024-01-10T01:45:17;-4.06;99.99
64198;SHT31;50512;53.666;9.700;2024-01-10T01:47:43;-4.17;99.99
64198;SHT31;50512;53.666;9.700;2024-01-10T01:50:10;-4.31;99.99
64198;SHT31;50512;53.666;9.700;2024-01-10T01:52:38;-4.26;99.99
64198;SHT31;50512;53.666;9.700;2024-01-10T01:55:06;-4.11;99.99
64198;SHT31;50512;53.666;9.700;2024-01-10T01:57:34;-4.33;99.99
64198;SHT31;50512;53.666;9.700;2024-01-10T02:00:07;-4.21;99.99
64198;SHT31;50512;53.666;9.700;2024-01-10T02:02:35;-4.17;99.99
64198;SHT31;50512;53.666;9.700;2024-01-10T02:05:02;-4.23;99.99
64198;SHT31;50512;53.666;9.700;2024-01-10T02:07:29;-4.11;99.99
64198;SHT31;50512;53.666;9.700;2024-01-10T02:09:57;-4.03;99.99
64198;SHT31;50512;53.666;9.700;2024-01-10T02:12:24;-4.10;99.99
64198;SHT31;50512;53.666;9.700;2024-01-10T02:14:49;-4.11;99.99
64198;SHT31;50512;53.666;9.700;2024-01-10T02:17:16;-4.13;99.99
64198;SHT31;50512;53.666;9.700;2024-01-10T02:19:42;-4.13;99.99
64198;SHT31;50512;53.666;9.700;2024-01-10T02:22:09;-4.16;99.99
64198;SHT31;50512;53.666;9.700;2024-01-10T02:24:36;-4.18;99.99
64198;SHT31;50512;53.666;9.700;2024-01-10T02:27:04;-4.03;99.99
64198;SHT31;50512;53.666;9.700;2024-01-10T02:29:31;-4.05;99.99
64198;SHT31;50512;53.666;9.700;2024-01-10T02:31:57;-4.06;99.99
64198;SHT31;50512;53.666;9.700;2024-01-10T02:34:24;-3.96;99.99
64198;SHT31;50512;53.666;9.700;2024-01-10T02:36:50;-4.20;99.99
64198;SHT31;50512;53.666;9.700;2024-01-10T02:39:16;-4.34;99.99
64198;SHT31;50512;53.666;9.700;2024-01-10T02:41:43;-4.30;99.99
64198;SHT31;50512;53.666;9.700;2024-01-10T02:44:11;-4.18;99.99
64198;SHT31;50512;53.666;9.700;2024-01-10T02:46:37;-4.28;99.99
64198;SHT31;50512;53.666;9.700;2024-01-10T02:49:04;-4.36;99.99
64198;SHT31;50512;53.666;9.700;2024-01-10T02:51:31;-4.27;99.99
64198;SHT31;50512;53.666;9.700;2024-01-10T02:53:57;-4.23;99.99
64198;SHT31;50512;53.666;9.700;2024-01-10T02:56:24;-4.18;99.99
64198;SHT31;50512;53.666;9.700;2024-01-10T02:58:50;-4.16;99.99
64198;SHT31;50512;53.666;9.700;2024-01-10T03:01:18;-4.28;99.99
64198;SHT31;50512;53.666;9.700;2024-01-10T03:03:44;-4.23;99.99
64198;SHT31;50512;53.666;9.700;2024-01-10T03:06:11;-4.34;99.99
64198;SHT31;50512;53.666;9.700;2024-01-10T03:08:37;-4.21;99.99
64198;SHT31;50512;53.666;9.700;2024-01-10T03:11:04;-4.21;99.99
64198;SHT31;50512;53.666;9.700;2024-01-10T03:13:30;-4.21;99.99
64198;SHT31;50512;53.666;9.700;2024-01-10T03:15:56;-4.31;99.99
64198;SHT31;50512;53.666;9.700;2024-01-10T03:18:24;-4.26;99.99
64198;SHT31;50512;53.666;9.700;2024-01-10T03:20:51;-4.18;99.99
64198;SHT31;50512;53.666;9.700;2024-01-10T03:23:18;-4.09;99.99
64198;SHT31;50512;53.666;9.700;2024-01-10T03:25:44;-4.17;99.99
64198;SHT31;50512;53.666;9.700;2024-01-10T03:28:15;-4.18;99.99
64198;SHT31;50512;53.666;9.700;2024-01-10T03:30:41;-4.09;99.99
64198;SHT31;50512;53.666;9.700;2024-01-10T03:33:08;-4.11;99.99
64198;SHT31;50512;53.666;9.700;2024-01-10T03:35:35;-3.99;99.99
64198;SHT31;50512;53.666;9.700;2024-01-10T03:38:02;-4.06;99.99
64198;SHT31;50512;53.666;9.700;2024-01-10T03:40:29;-4.05;99.99
64198;SHT31;50512;53.666;9.700;2024-01-10T03:42:55;-4.07;99.99
64198;SHT31;50512;53.666;9.700;2024-01-10T03:45:22;-4.05;99.99
64198;SHT31;50512;53.666;9.700;2024-01-10T03:47:48;-3.96;99.99
64198;SHT31;50512;53.666;9.700;2024-01-10T03:50:17;-3.93;99.99
64198;SHT31;50512;53.666;9.700;2024-01-10T03:52:45;-4.00;99.99
64198;SHT31;50512;53.666;9.700;2024-01-10T03:55:12;-3.92;99.99
64198;SHT31;50512;53.666;9.700;2024-01-10T03:57:40;-3.81;99.99
64198;SHT31;50512;53.666;9.700;2024-01-10T04:00:07;-3.83;99.99
64198;SHT31;50512;53.666;9.700;2024-01-10T04:02:36;-3.75;99.99
64198;SHT31;50512;53.666;9.700;2024-01-10T04:05:06;-3.65;99.99
64198;SHT31;50512;53.666;9.700;2024-01-10T04:07:32;-3.64;99.99
64198;SHT31;50512;53.666;9.700;2024-01-10T04:10:00;-3.61;99.99
64198;SHT31;50512;53.666;9.700;2024-01-10T04:12:27;-3.64;99.99
64198;SHT31;50512;53.666;9.700;2024-01-10T04:14:54;-3.55;99.99
64198;SHT31;50512;53.666;9.700;2024-01-10T04:17:20;-3.48;99.99
64198;SHT31;50512;53.666;9.700;2024-01-10T04:19:46;-3.39;99.99
64198;SHT31;50512;53.666;9.700;2024-01-10T04:22:13;-3.39;99.99
64198;SHT31;50512;53.666;9.700;2024-01-10T04:24:39;-3.37;99.99
64198;SHT31;50512;53.666;9.700;2024-01-10T04:27:07;-3.32;99.99
64198;SHT31;50512;53.666;9.700;2024-01-10T04:29:33;-3.41;99.99
64198;SHT31;50512;53.666;9.700;2024-01-10T04:32:00;-3.34;99.99
64198;SHT31;50512;53.666;9.700;2024-01-10T04:34:26;-3.27;99.99
64198;SHT31;50512;53.666;9.700;2024-01-10T04:36:53;-3.30;99.99
64198;SHT31;50512;53.666;9.700;2024-01-10T04:39:19;-3.27;99.99
64198;SHT31;50512;53.666;9.700;2024-01-10T04:41:46;-3.26;99.99
64198;SHT31;50512;53.666;9.700;2024-01-10T04:44:13;-3.32;99.99
64198;SHT31;50512;53.666;9.700;2024-01-10T04:46:41;-3.58;99.99
64198;SHT31;50512;53.666;9.700;2024-01-10T04:49:08;-3.46;99.99
64198;SHT31;50512;53.666;9.700;2024-01-10T04:51:34;-3.50;99.99
64198;SHT31;50512;53.666;9.700;2024-01-10T04:54:01;-3.52;99.99
64198;SHT31;50512;53.666;9.700;2024-01-10T04:56:27;-3.47;99.99
64198;SHT31;50512;53.666;9.700;2024-01-10T04:58:54;-3.48;99.99
64198;SHT31;50512;53.666;9.700;2024-01-10T05:01:21;-3.55;99.99
64198;SHT31;50512;53.666;9.700;2024-01-10T05:03:48;-3.65;99.99
64198;SHT31;50512;53.666;9.700;2024-01-10T05:06:15;-3.67;99.99
64198;SHT31;50512;53.666;9.700;2024-01-10T05:08:41;-3.71;99.99
64198;SHT31;50512;53.666;9.700;2024-01-10T05:11:08;-3.78;99.99
64198;SHT31;50512;53.666;9.700;2024-01-10T05:13:34;-3.77;99.99
64198;SHT31;50512;53.666;9.700;2024-01-10T05:16:01;-3.75;99.99
64198;SHT31;50512;53.666;9.700;2024-01-10T05:18:29;-3.71;99.99
64198;SHT31;50512;53.666;9.700;2024-01-10T05:20:55;-3.58;99.99
64198;SHT31;50512;53.666;9.700;2024-01-10T05:23:22;-3.57;99.99
64198;SHT31;50512;53.666;9.700;2024-01-10T05:25:49;-3.57;99.99
64198;SHT31;50512;53.666;9.700;2024-01-10T05:28:16;-3.62;99.99
64198;SHT31;50512;53.666;9.700;2024-01-10T05:30:43;-3.68;99.99
64198;SHT31;50512;53.666;9.700;2024-01-10T05:33:09;-3.58;99.99
64198;SHT31;50512;53.666;9.700;2024-01-10T05:35:38;-3.61;99.99
64198;SHT31;50512;53.666;9.700;2024-01-10T05:38:04;-3.58;99.99
64198;SHT31;50512;53.666;9.700;2024-01-10T05:40:31;-3.75;99.99
64198;SHT31;50512;53.666;9.700;2024-01-10T05:42:58;-3.70;99.99
64198;SHT31;50512;53.666;9.700;2024-01-10T05:45:25;-3.81;99.99
64198;SHT31;50512;53.666;9.700;2024-01-10T05:47:52;-3.83;99.99
64198;SHT31;50512;53.666;9.700;2024-01-10T05:50:18;-3.92;99.99
64198;SHT31;50512;53.666;9.700;2024-01-10T05:52:47;-3.81;99.99
64198;SHT31;50512;53.666;9.700;2024-01-10T05:55:14;-3.77;99.99
64198;SHT31;50512;53.666;9.700;2024-01-10T05:57:40;-3.72;99.99
64198;SHT31;50512;53.666;9.700;2024-01-10T06:00:07;-3.71;99.99
64198;SHT31;50512;53.666;9.700;2024-01-10T06:02:34;-3.82;99.99
64198;SHT31;50512;53.666;9.700;2024-01-10T06:05:05;-3.86;99.99
64198;SHT31;50512;53.666;9.700;2024-01-10T06:07:31;-3.83;99.99
64198;SHT31;50512;53.666;9.700;2024-01-10T06:09:59;-4.10;99.99
64198;SHT31;50512;53.666;9.700;2024-01-10T06:12:26;-3.98;99.99
64198;SHT31;50512;53.666;9.700;2024-01-10T06:14:53;-3.98;99.99
64198;SHT31;50512;53.666;9.700;2024-01-10T06:17:19;-3.90;99.99
64198;SHT31;50512;53.666;9.700;2024-01-10T06:19:46;-3.99;99.99
64198;SHT31;50512;53.666;9.700;2024-01-10T06:22:12;-3.93;99.99
64198;SHT31;50512;53.666;9.700;2024-01-10T06:24:39;-4.21;99.99
64198;SHT31;50512;53.666;9.700;2024-01-10T06:27:07;-4.16;99.99
64198;SHT31;50512;53.666;9.700;2024-01-10T06:29:35;-4.17;99.99
64198;SHT31;50512;53.666;9.700;2024-01-10T06:32:02;-4.17;99.99
64198;SHT31;50512;53.666;9.700;2024-01-10T06:34:28;-4.13;99.99
64198;SHT31;50512;53.666;9.700;2024-01-10T06:36:54;-4.51;99.99
64198;SHT31;50512;53.666;9.700;2024-01-10T06:39:22;-4.36;99.99
64198;SHT31;50512;53.666;9.700;2024-01-10T06:41:49;-4.36;99.99
64198;SHT31;50512;53.666;9.700;2024-01-10T06:44:16;-4.30;99.99
64198;SHT31;50512;53.666;9.700;2024-01-10T06:46:43;-4.27;99.99
64198;SHT31;50512;53.666;9.700;2024-01-10T06:49:10;-4.33;99.99
64198;SHT31;50512;53.666;9.700;2024-01-10T06:51:37;-4.30;99.99
64198;SHT31;50512;53.666;9.700;2024-01-10T06:54:04;-4.21;99.99
64198;SHT31;50512;53.666;9.700;2024-01-10T06:56:31;-4.37;99.99
64198;SHT31;50512;53.666;9.700;2024-01-10T06:58:58;-4.40;99.99
64198;SHT31;50512;53.666;9.700;2024-01-10T07:01:26;-4.55;99.99
64198;SHT31;50512;53.666;9.700;2024-01-10T07:03:53;-4.62;99.99
64198;SHT31;50512;53.666;9.700;2024-01-10T07:06:20;-4.48;99.99
64198;SHT31;50512;53.666;9.700;2024-01-10T07:08:48;-4.41;99.99
64198;SHT31;50512;53.666;9.700;2024-01-10T07:11:15;-4.44;99.99
64198;SHT31;50512;53.666;9.700;2024-01-10T07:13:41;-4.36;99.99
64198;SHT31;50512;53.666;9.700;2024-01-10T07:16:08;-4.34;99.99
64198;SHT31;50512;53.666;9.700;2024-01-10T07:18:36;-4.23;99.99
64198;SHT31;50512;53.666;9.700;2024-01-10T07:21:03;-4.21;99.99
64198;SHT31;50512;53.666;9.700;2024-01-10T07:23:30;-4.21;99.99
64198;SHT31;50512;53.666;9.700;2024-01-10T07:25:57;-4.11;99.99
64198;SHT31;50512;53.666;9.700;2024-01-10T07:28:24;-4.00;99.99
64198;SHT31;50512;53.666;9.700;2024-01-10T07:30:50;-3.86;99.99
64198;SHT31;50512;53.666;9.700;2024-01-10T07:33:17;-3.74;99.99
64198;SHT31;50512;53.666;9.700;2024-01-10T07:35:44;-3.64;99.99
64198;SHT31;50512;53.666;9.700;2024-01-10T07:38:11;-3.65;99.99
64198;SHT31;50512;53.666;9.700;2024-01-10T07:40:37;-3.68;99.99
64198;SHT31;50512;53.666;9.700;2024-01-10T07:43:04;-3.55;99.99
64198;SHT31;50512;53.666;9.700;2024-01-10T07:45:30;-3.43;99.99
64198;SHT31;50512;53.666;9.700;2024-01-10T07:47:58;-3.30;99.99
64198;SHT31;50512;53.666;9.700;2024-01-10T07:50:25;-3.27;99.99
64198;SHT31;50512;53.666;9.700;2024-01-10T07:52:54;-3.26;99.99
64198;SHT31;50512;53.666;9.700;2024-01-10T07:55:21;-3.21;99.99
64198;SHT31;50512;53.666;9.700;2024-01-10T07:57:47;-3.17;99.99
64198;SHT31;50512;53.666;9.700;2024-01-10T08:00:15;-3.29;99.99
64198;SHT31;50512;53.666;9.700;2024-01-10T08:02:41;-3.20;99.99
64198;SHT31;50512;53.666;9.700;2024-01-10T08:05:08;-3.10;99.99
64198;SHT31;50512;53.666;9.700;2024-01-10T08:07:34;-3.09;99.99
64198;SHT31;50512;53.666;9.700;2024-01-10T08:10:04;-3.12;99.99
64198;SHT31;50512;53.666;9.700;2024-01-10T08:12:30;-3.29;99.99
64198;SHT31;50512;53.666;9.700;2024-01-10T08:14:57;-3.24;99.99
64198;SHT31;50512;53.666;9.700;2024-01-10T08:17:24;-3.16;99.99
64198;SHT31;50512;53.666;9.700;2024-01-10T08:19:50;-3.16;99.99
64198;SHT31;50512;53.666;9.700;2024-01-10T08:22:17;-3.20;99.99
64198;SHT31;50512;53.666;9.700;2024-01-10T08:24:45;-3.23;99.99
64198;SHT31;50512;53.666;9.700;2024-01-10T08:27:13;-3.19;99.99
64198;SHT31;50512;53.666;9.700;2024-01-10T08:29:39;-3.12;99.99
64198;SHT31;50512;53.666;9.700;2024-01-10T08:32:06;-3.09;99.99
64198;SHT31;50512;53.666;9.700;2024-01-10T08:34:32;-3.16;99.99
64198;SHT31;50512;53.666;9.700;2024-01-10T08:36:59;-3.12;99.99
64198;SHT31;50512;53.666;9.700;2024-01-10T08:39:25;-3.12;99.99
64198;SHT31;50512;53.666;9.700;2024-01-10T08:41:55;-3.09;99.99
64198;SHT31;50512;53.666;9.700;2024-01-10T08:44:23;-3.07;99.99
64198;SHT31;50512;53.666;9.700;2024-01-10T08:46:50;-3.09;99.99
64198;SHT31;50512;53.666;9.700;2024-01-10T08:49:16;-3.06;99.99
64198;SHT31;50512;53.666;9.700;2024-01-10T08:51:43;-3.10;99.99
64198;SHT31;50512;53.666;9.700;2024-01-10T08:54:11;-2.95;99.99
64198;SHT31;50512;53.666;9.700;2024-01-10T08:56:42;-2.96;99.99
64198;SHT31;50512;53.666;9.700;2024-01-10T08:59:09;-3.13;99.99
64198;SHT31;50512;53.666;9.700;2024-01-10T09:01:37;-3.02;99.99
64198;SHT31;50512;53.666;9.700;2024-01-10T09:04:04;-2.95;99.99
64198;SHT31;50512;53.666;9.700;2024-01-10T09:06:31;-3.06;99.99
64198;SHT31;50512;53.666;9.700;2024-01-10T09:08:57;-2.97;99.99
64198;SHT31;50512;53.666;9.700;2024-01-10T09:11:24;-2.86;99.99
64198;SHT31;50512;53.666;9.700;2024-01-10T09:13:51;-3.02;99.99
64198;SHT31;50512;53.666;9.700;2024-01-10T09:16:17;-3.10;99.99
64198;SHT31;50512;53.666;9.700;2024-01-10T09:18:46;-3.03;99.99
64198;SHT31;50512;53.666;9.700;2024-01-10T09:21:13;-2.91;99.99
64198;SHT31;50512;53.666;9.700;2024-01-10T09:23:40;-3.00;99.99
64198;SHT31;50512;53.666;9.700;2024-01-10T09:26:07;-2.96;99.99
64198;SHT31;50512;53.666;9.700;2024-01-10T09:28:33;-3.09;99.99
64198;SHT31;50512;53.666;9.700;2024-01-10T09:31:00;-3.00;99.99
64198;SHT31;50512;53.666;9.700;2024-01-10T09:33:26;-2.96;99.99
64198;SHT31;50512;53.666;9.700;2024-01-10T09:35:54;-2.97;99.99
64198;SHT31;50512;53.666;9.700;2024-01-10T09:38:21;-3.17;99.99
64198;SHT31;50512;53.666;9.700;2024-01-10T09:40:47;-3.16;99.99
64198;SHT31;50512;53.666;9.700;2024-01-10T09:43:15;-3.12;99.99
64198;SHT31;50512;53.666;9.700;2024-01-10T09:45:43;-2.97;99.83
64198;SHT31;50512;53.666;9.700;2024-01-10T09:48:13;-2.96;99.89
64198;SHT31;50512;53.666;9.700;2024-01-10T09:50:40;-3.02;99.99
64198;SHT31;50512;53.666;9.700;2024-01-10T09:53:13;-2.85;99.99
64198;SHT31;50512;53.666;9.700;2024-01-10T09:55:42;-2.74;99.51
64198;SHT31;50512;53.666;9.700;2024-01-10T09:58:08;-2.84;99.99
64198;SHT31;50512;53.666;9.700;2024-01-10T10:00:36;-2.89;99.31
64198;SHT31;50512;53.666;9.700;2024-01-10T10:03:04;-2.93;99.74
64198;SHT31;50512;53.666;9.700;2024-01-10T10:05:32;-2.91;99.92
64198;SHT31;50512;53.666;9.700;2024-01-10T10:07:59;-2.68;99.99
64198;SHT31;50512;53.666;9.700;2024-01-10T10:10:27;-2.79;99.30
64198;SHT31;50512;53.666;9.700;2024-01-10T10:12:53;-2.92;99.94
64198;SHT31;50512;53.666;9.700;2024-01-10T10:15:21;-2.82;99.99
64198;SHT31;50512;53.666;9.700;2024-01-10T10:17:49;-2.77;99.88
64198;SHT31;50512;53.666;9.700;2024-01-10T10:20:20;-2.82;99.27
64198;SHT31;50512;53.666;9.700;2024-01-10T10:22:58;-2.71;99.72
64198;SHT31;50512;53.666;9.700;2024-01-10T10:25:29;-2.64;99.19
64198;SHT31;50512;53.666;9.700;2024-01-10T10:27:56;-2.54;98.92
64198;SHT31;50512;53.666;9.700;2024-01-10T10:30:23;-2.50;98.65
64198;SHT31;50512;53.666;9.700;2024-01-10T10:32:49;-2.43;98.40
64198;SHT31;50512;53.666;9.700;2024-01-10T10:35:18;-2.37;98.39
64198;SHT31;50512;53.666;9.700;2024-01-10T10:37:45;-2.26;97.88
64198;SHT31;50512;53.666;9.700;2024-01-10T10:40:11;-2.20;97.81
64198;SHT31;50512;53.666;9.700;2024-01-10T10:42:43;-2.36;98.20
64198;SHT31;50512;53.666;9.700;2024-01-10T10:45:13;-2.57;98.93
64198;SHT31;50512;53.666;9.700;2024-01-10T10:47:43;-2.44;99.08
64198;SHT31;50512;53.666;9.700;2024-01-10T10:50:12;-2.71;99.77
64198;SHT31;50512;53.666;9.700;2024-01-10T10:52:42;-2.51;99.99
64198;SHT31;50512;53.666;9.700;2024-01-10T10:55:13;-2.51;99.36
64198;SHT31;50512;53.666;9.700;2024-01-10T10:57:43;-2.33;99.55
64198;SHT31;50512;53.666;9.700;2024-01-10T11:00:11;-2.18;99.05
64198;SHT31;50512;53.666;9.700;2024-01-10T11:02:40;-2.28;98.93
64198;SHT31;50512;53.666;9.700;2024-01-10T11:05:07;-2.23;98.69
64198;SHT31;50512;53.666;9.700;2024-01-10T11:07:35;-2.20;97.93
64198;SHT31;50512;53.666;9.700;2024-01-10T11:10:04;-2.32;97.57
64198;SHT31;50512;53.666;9.700;2024-01-10T11:12:44;-2.49;98.69
64198;SHT31;50512;53.666;9.700;2024-01-10T11:15:34;-2.50;99.55
64198;SHT31;50512;53.666;9.700;2024-01-10T11:18:19;-2.43;99.39
64198;SHT31;50512;53.666;9.700;2024-01-10T11:20:57;-2.72;99.26
64198;SHT31;50512;53.666;9.700;2024-01-10T11:23:38;-2.68;99.99
64198;SHT31;50512;53.666;9.700;2024-01-10T11:26:06;-2.39;99.99
64198;SHT31;50512;53.666;9.700;2024-01-10T11:28:35;-2.50;99.94
64198;SHT31;50512;53.666;9.700;2024-01-10T11:31:02;-2.33;99.99
64198;SHT31;50512;53.666;9.700;2024-01-10T11:33:31;-2.09;99.58
64198;SHT31;50512;53.666;9.700;2024-01-10T11:36:08;-1.96;98.30
64198;SHT31;50512;53.666;9.700;2024-01-10T11:38:40;-2.16;97.79
64198;SHT31;50512;53.666;9.700;2024-01-10T11:41:10;-2.29;98.85
64198;SHT31;50512;53.666;9.700;2024-01-10T11:43:38;-2.37;99.99
64198;SHT31;50512;53.666;9.700;2024-01-10T11:46:05;-2.51;99.72
64198;SHT31;50512;53.666;9.700;2024-01-10T11:48:32;-2.79;99.99
64198;SHT31;50512;53.666;9.700;2024-01-10T11:50:59;-2.75;99.99
64198;SHT31;50512;53.666;9.700;2024-01-10T11:53:39;-2.72;99.99
64198;SHT31;50512;53.666;9.700;2024-01-10T11:56:11;-2.67;99.99
64198;SHT31;50512;53.666;9.700;2024-01-10T11:58:56;-2.44;99.99
64198;SHT31;50512;53.666;9.700;2024-01-10T12:01:27;-2.56;99.71
64198;SHT31;50512;53.666;9.700;2024-01-10T12:03:54;-2.53;99.85
64198;SHT31;50512;53.666;9.700;2024-01-10T12:06:22;-2.46;99.99
64198;SHT31;50512;53.666;9.700;2024-01-10T12:08:48;-2.39;99.63
64198;SHT31;50512;53.666;9.700;2024-01-10T12:11:15;-2.75;99.20
64198;SHT31;50512;53.666;9.700;2024-01-10T12:13:42;-2.86;99.99
64198;SHT31;50512;53.666;9.700;2024-01-10T12:16:11;-2.74;99.98
64198;SHT31;50512;53.666;9.700;2024-01-10T12:18:38;-2.96;99.06
64198;SHT31;50512;53.666;9.700;2024-01-10T12:21:05;-3.09;99.50
64198;SHT31;50512;53.666;9.700;2024-01-10T12:23:34;-3.07;99.99
64198;SHT31;50512;53.666;9.700;2024-01-10T12:26:01;-2.97;99.99
64198;SHT31;50512;53.666;9.700;2024-01-10T12:28:28;-3.02;99.99
64198;SHT31;50512;53.666;9.700;2024-01-10T12:30:54;-2.99;99.99
64198;SHT31;50512;53.666;9.700;2024-01-10T12:33:23;-3.02;99.46
64198;SHT31;50512;53.666;9.700;2024-01-10T12:36:03;-3.00;99.37
64198;SHT31;50512;53.666;9.700;2024-01-10T12:38:30;-2.97;99.65
64198;SHT31;50512;53.666;9.700;2024-01-10T12:40:57;-2.85;99.48
64198;SHT31;50512;53.666;9.700;2024-01-10T12:43:24;-2.78;99.55
64198;SHT31;50512;53.666;9.700;2024-01-10T12:46:02;-2.77;99.17
64198;SHT31;50512;53.666;9.700;2024-01-10T12:48:31;-2.71;99.21
64198;SHT31;50512;53.666;9.700;2024-01-10T12:50:58;-2.72;99.18
64198;SHT31;50512;53.666;9.700;2024-01-10T12:53:26;-2.44;99.09
64198;SHT31;50512;53.666;9.700;2024-01-10T12:55:53;-2.28;98.49
64198;SHT31;50512;53.666;9.700;2024-01-10T12:58:20;-2.13;97.78
64198;SHT31;50512;53.666;9.700;2024-01-10T13:00:46;-2.60;97.85
64198;SHT31;50512;53.666;9.700;2024-01-10T13:03:13;-2.75;98.76
64198;SHT31;50512;53.666;9.700;2024-01-10T13:05:41;-2.64;98.98
64198;SHT31;50512;53.666;9.700;2024-01-10T13:08:07;-2.84;99.44
64198;SHT31;50512;53.666;9.700;2024-01-10T13:10:34;-2.71;98.75
64198;SHT31;50512;53.666;9.700;2024-01-10T13:13:00;-2.77;98.74
64198;SHT31;50512;53.666;9.700;2024-01-10T13:15:28;-2.95;98.44
64198;SHT31;50512;53.666;9.700;2024-01-10T13:17:55;-2.86;99.33
64198;SHT31;50512;53.666;9.700;2024-01-10T13:20:22;-2.65;98.74
64198;SHT31;50512;53.666;9.700;2024-01-10T13:22:50;-2.53;98.22
64198;SHT31;50512;53.666;9.700;2024-01-10T13:25:17;-2.49;97.86
64198;SHT31;50512;53.666;9.700;2024-01-10T13:27:48;-2.64;98.24
64198;SHT31;50512;53.666;9.700;2024-01-10T13:30:16;-2.54;97.84
64198;SHT31;50512;53.666;9.700;2024-01-10T13:32:43;-2.64;97.34
64198;SHT31;50512;53.666;9.700;2024-01-10T13:35:09;-2.54;98.16
64198;SHT31;50512;53.666;9.700;2024-01-10T13:37:36;-2.60;97.82
64198;SHT31;50512;53.666;9.700;2024-01-10T13:40:06;-2.89;98.33
64198;SHT31;50512;53.666;9.700;2024-01-10T13:42:33;-2.68;98.93
64198;SHT31;50512;53.666;9.700;2024-01-10T13:44:59;-2.47;98.20
64198;SHT31;50512;53.666;9.700;2024-01-10T13:47:26;-2.33;97.39
64198;SHT31;50512;53.666;9.700;2024-01-10T13:49:52;-2.19;97.86
64198;SHT31;50512;53.666;9.700;2024-01-10T13:52:19;-2.20;96.38
64198;SHT31;50512;53.666;9.700;2024-01-10T13:54:45;-2.32;96.79
64198;SHT31;50512;53.666;9.700;2024-01-10T13:57:13;-2.34;96.29
64198;SHT31;50512;53.666;9.700;2024-01-10T13:59:39;-2.49;96.40
64198;SHT31;50512;53.666;9.700;2024-01-10T14:02:06;-2.46;96.46
64198;SHT31;50512;53.666;9.700;2024-01-10T14:04:33;-2.53;96.62
64198;SHT31;50512;53.666;9.700;2024-01-10T14:06:59;-2.68;96.81
64198;SHT31;50512;53.666;9.700;2024-01-10T14:09:26;-2.72;97.68
64198;SHT31;50512;53.666;9.700;2024-01-10T14:11:52;-2.65;98.05
64198;SHT31;50512;53.666;9.700;2024-01-10T14:14:20;-2.54;97.52
64198;SHT31;50512;53.666;9.700;2024-01-10T14:16:47;-2.40;97.21
64198;SHT31;50512;53.666;9.700;2024-01-10T14:19:14;-2.37;96.71
64198;SHT31;50512;53.666;9.700;2024-01-10T14:21:42;-2.36;96.77
64198;SHT31;50512;53.666;9.700;2024-01-10T14:24:08;-2.30;96.48
64198;SHT31;50512;53.666;9.700;2024-01-10T14:26:35;-2.36;96.66
64198;SHT31;50512;53.666;9.700;2024-01-10T14:29:02;-2.68;96.76
64198;SHT31;50512;53.666;9.700;2024-01-10T14:31:29;-2.75;97.70
64198;SHT31;50512;53.666;9.700;2024-01-10T14:33:56;-2.89;97.92
64198;SHT31;50512;53.666;9.700;2024-01-10T14:36:22;-2.86;98.12
64198;SHT31;50512;53.666;9.700;2024-01-10T14:38:49;-2.92;98.08
64198;SHT31;50512;53.666;9.700;2024-01-10T14:41:16;-2.86;98.12
64198;SHT31;50512;53.666;9.700;2024-01-10T14:43:42;-2.75;98.36
64198;SHT31;50512;53.666;9.700;2024-01-10T14:46:09;-2.78;97.93
64198;SHT31;50512;53.666;9.700;2024-01-10T14:48:37;-2.75;98.01
64198;SHT31;50512;53.666;9.700;2024-01-10T14:51:04;-2.82;98.08
64198;SHT31;50512;53.666;9.700;2024-01-10T14:53:31;-2.85;98.31
64198;SHT31;50512;53.666;9.700;2024-01-10T14:55:57;-2.74;98.26
64198;SHT31;50512;53.666;9.700;2024-01-10T14:58:24;-2.67;97.84
64198;SHT31;50512;53.666;9.700;2024-01-10T15:00:50;-2.77;97.68
64198;SHT31;50512;53.666;9.700;2024-01-10T15:03:16;-2.86;98.27
64198;SHT31;50512;53.666;9.700;2024-01-10T15:05:44;-2.81;98.70
64198;SHT31;50512;53.666;9.700;2024-01-10T15:08:11;-2.68;98.58
64198;SHT31;50512;53.666;9.700;2024-01-10T15:10:37;-2.33;98.77
64198;SHT31;50512;53.666;9.700;2024-01-10T15:13:08;-2.30;96.89
64198;SHT31;50512;53.666;9.700;2024-01-10T15:15:36;-2.39;96.66
64198;SHT31;50512;53.666;9.700;2024-01-10T15:18:04;-2.40;96.58
64198;SHT31;50512;53.666;9.700;2024-01-10T15:20:30;-2.53;97.05
64198;SHT31;50512;53.666;9.700;2024-01-10T15:22:58;-2.51;97.15
64198;SHT31;50512;53.666;9.700;2024-01-10T15:25:25;-2.58;97.27
64198;SHT31;50512;53.666;9.700;2024-01-10T15:27:52;-2.65;97.75
64198;SHT31;50512;53.666;9.700;2024-01-10T15:30:19;-2.67;97.62